createdAt,value
2018-04-13T00:02:34.017Z,94210.83
2018-04-13T00:17:35.260Z,94222.00
2018-04-13T00:32:35.032Z,94230.37
2018-04-13T00:47:34.614Z,94225.69
2018-04-13T01:02:34.336Z,94231.30
2018-04-13T01:17:34.325Z,94233.33
2018-04-13T01:32:34.789Z,94211.88
2018-04-13T01:47:35.197Z,94227.34
2018-04-13T02:02:34.912Z,94235.19
2018-04-13T02:17:35.216Z,94239.87
2018-04-13T02:32:37.026Z,94242.06
2018-04-13T02:47:34.431Z,94257.89
2018-04-13T03:02:34.392Z,94267.67
2018-04-13T03:17:36.397Z,94267.01
2018-04-13T03:32:34.729Z,94280.64
2018-04-13T03:47:36.064Z,94290.97
2018-04-13T04:02:35.145Z,94287.10
2018-04-13T04:17:36.184Z,94307.45
2018-04-13T04:32:35.938Z,94332.22
2018-04-13T04:47:35.537Z,94349.91
2018-04-13T05:02:37.325Z,94366.48
2018-04-13T05:17:35.142Z,94369.58
2018-04-13T05:32:36.152Z,94387.52
2018-04-13T05:47:35.228Z,94394.78
2018-04-13T06:02:35.221Z,94399.92
2018-04-13T06:17:35.191Z,94415.55
2018-04-13T06:32:35.527Z,94432.17
2018-04-13T06:47:34.527Z,94436.78
2018-04-13T07:02:34.927Z,94438.39
2018-04-13T07:17:34.945Z,94438.95
2018-04-13T07:32:34.216Z,94438.91
2018-04-13T07:47:35.306Z,94439.59
2018-04-13T08:02:35.214Z,94425.62
2018-04-13T08:17:35.210Z,94432.67
2018-04-13T08:32:40.394Z,94427.39
2018-04-13T08:47:35.111Z,94413.64
2018-04-13T09:02:39.440Z,94415.41
2018-04-13T09:17:37.397Z,94424.82
2018-04-13T09:32:39.466Z,94402.77
2018-04-13T09:47:35.827Z,94389.59
2018-04-13T10:02:38.708Z,94384.44
2018-04-13T10:17:35.765Z,94387.45
2018-04-13T10:32:36.333Z,94377.36
2018-04-13T10:47:37.112Z,94365.12
2018-04-13T11:02:38.617Z,94364.11
2018-04-13T11:17:37.013Z,94355.80
2018-04-13T11:32:34.585Z,94346.44
2018-04-13T11:47:35.499Z,94338.17
2018-04-13T12:02:35.462Z,94331.02
2018-04-13T12:17:36.588Z,94335.38
2018-04-13T12:32:37.180Z,94315.81
2018-04-13T12:47:37.618Z,94308.37
2018-04-13T13:02:35.089Z,94285.56
2018-04-13T13:17:35.114Z,94296.73
2018-04-13T13:32:35.423Z,94283.08
2018-04-13T13:47:34.262Z,94283.30
2018-04-13T14:02:34.815Z,94274.34
2018-04-13T14:17:34.227Z,94273.38
2018-04-13T14:32:36.375Z,94288.85
2018-04-13T14:47:35.885Z,94294.05
2018-04-13T15:02:37.136Z,94295.89
2018-04-13T15:17:34.454Z,94306.13
2018-04-13T15:32:35.907Z,94307.02
2018-04-13T15:47:36.880Z,94306.42
2018-04-13T16:02:37.063Z,94364.91
2018-04-13T16:17:34.939Z,94373.69
2018-04-13T16:32:35.298Z,94389.81
2018-04-13T16:47:33.842Z,94399.66
2018-04-13T17:02:35.617Z,94399.11
2018-04-13T17:17:34.201Z,94408.91
2018-04-13T17:32:37.088Z,94442.05
2018-04-13T17:47:34.595Z,94480.91
2018-04-13T18:02:36.562Z,94521.70
2018-04-13T18:17:34.611Z,94539.33
2018-04-13T18:32:37.520Z,94559.19
2018-04-13T18:47:37.766Z,94574.97
2018-04-13T19:02:37.450Z,94588.23
2018-04-13T19:17:36.175Z,94609.48
2018-04-13T19:32:37.345Z,94638.50
2018-04-13T19:47:37.381Z,94640.86
2018-04-13T20:17:37.310Z,94652.67
2018-04-13T20:32:34.638Z,94660.19
2018-04-13T20:47:34.633Z,94672.39
2018-04-13T21:02:34.209Z,94684.78
2018-04-13T21:17:35.408Z,94691.73
2018-04-13T21:32:34.585Z,94700.13
2018-04-13T21:47:37.107Z,94710.95
2018-04-13T22:02:35.074Z,94724.63
2018-04-13T22:17:34.744Z,94729.64
2018-04-13T22:32:37.009Z,94743.00
2018-04-13T22:47:37.004Z,94744.17
2018-04-13T23:02:34.862Z,94753.39
2018-04-13T23:17:37.273Z,94762.25
2018-04-13T23:32:34.873Z,94776.16
2018-04-13T23:47:39.304Z,94785.02
